sensor_id;sensor_type;location;lat;lon;timestamp;temperature;humidity
27270;DHT22;14769;56.934;24.176;2022-08-11T00:00:59;13.50;99.90
27270;DHT22;14769;56.934;24.176;2022-08-11T00:02:06;13.50;99.90
27270;DHT22;14769;56.934;24.176;2022-08-11T00:03:17;13.50;99.90
27270;DHT22;14769;56.934;24.176;2022-08-11T00:04:24;13.50;99.90
27270;DHT22;14769;56.934;24.176;2022-08-11T00:05:27;13.50;99.90
27270;DHT22;14769;56.934;24.176;2022-08-11T00:06:34;13.50;99.90
27270;DHT22;14769;56.934;24.176;2022-08-11T00:07:51;13.50;99.90
27270;DHT22;14769;56.934;24.176;2022-08-11T00:08:54;13.60;99.90
27270;DHT22;14769;56.934;24.176;2022-08-11T00:09:59;13.50;99.90
27270;DHT22;14769;56.934;24.176;2022-08-11T00:11:05;13.50;99.90
27270;DHT22;14769;56.934;24.176;2022-08-11T00:12:17;13.50;99.90
27270;DHT22;14769;56.934;24.176;2022-08-11T00:13:19;13.50;99.90
27270;DHT22;14769;56.934;24.176;2022-08-11T00:14:28;13.40;99.90
27270;DHT22;14769;56.934;24.176;2022-08-11T00:15:41;13.40;99.90
27270;DHT22;14769;56.934;24.176;2022-08-11T00:16:56;13.20;99.90
27270;DHT22;14769;56.934;24.176;2022-08-11T00:18:00;13.20;99.90
27270;DHT22;14769;56.934;24.176;2022-08-11T00:19:04;13.10;99.90
27270;DHT22;14769;56.934;24.176;2022-08-11T00:20:08;13.10;99.90
27270;DHT22;14769;56.934;24.176;2022-08-11T00:21:17;13.10;99.90
27270;DHT22;14769;56.934;24.176;2022-08-11T00:22:43;13.00;99.90
27270;DHT22;14769;56.934;24.176;2022-08-11T00:23:54;13.10;99.90
27270;DHT22;14769;56.934;24.176;2022-08-11T00:24:57;13.10;99.90
27270;DHT22;14769;56.934;24.176;2022-08-11T00:26:06;13.10;99.90
27270;DHT22;14769;56.934;24.176;2022-08-11T00:27:08;13.10;99.90
27270;DHT22;14769;56.934;24.176;2022-08-11T00:28:28;13.20;99.90
27270;DHT22;14769;56.934;24.176;2022-08-11T00:29:31;13.20;99.90
27270;DHT22;14769;56.934;24.176;2022-08-11T00:30:39;13.20;99.90
27270;DHT22;14769;56.934;24.176;2022-08-11T00:31:50;13.20;99.90
27270;DHT22;14769;56.934;24.176;2022-08-11T00:32:56;13.20;99.90
27270;DHT22;14769;56.934;24.176;2022-08-11T00:34:00;13.20;99.90
27270;DHT22;14769;56.934;24.176;2022-08-11T00:35:07;13.10;99.90
27270;DHT22;14769;56.934;24.176;2022-08-11T00:36:47;13.10;99.90
27270;DHT22;14769;56.934;24.176;2022-08-11T00:37:53;13.10;99.90
27270;DHT22;14769;56.934;24.176;2022-08-11T00:39:03;13.10;99.90
27270;DHT22;14769;56.934;24.176;2022-08-11T00:40:13;13.10;99.90
27270;DHT22;14769;56.934;24.176;2022-08-11T00:41:38;13.10;99.90
27270;DHT22;14769;56.934;24.176;2022-08-11T00:42:58;13.00;99.90
27270;DHT22;14769;56.934;24.176;2022-08-11T00:45:35;13.00;99.90
27270;DHT22;14769;56.934;24.176;2022-08-11T00:49:34;13.00;99.90
27270;DHT22;14769;56.934;24.176;2022-08-11T00:52:32;13.00;99.90
27270;DHT22;14769;56.934;24.176;2022-08-11T01:00:05;12.90;99.90
27270;DHT22;14769;56.934;24.176;2022-08-11T01:01:47;12.80;99.90
27270;DHT22;14769;56.934;24.176;2022-08-11T01:16:04;12.40;99.90
27270;DHT22;14769;56.934;24.176;2022-08-11T01:22:09;12.40;99.90
27270;DHT22;14769;56.934;24.176;2022-08-11T01:28:20;12.40;99.90
27270;DHT22;14769;56.934;24.176;2022-08-11T02:00:23;12.30;99.90
27270;DHT22;14769;56.934;24.176;2022-08-11T02:03:57;12.30;99.90
27270;DHT22;14769;56.934;24.176;2022-08-11T02:05:09;12.30;99.90
27270;DHT22;14769;56.934;24.176;2022-08-11T02:08:22;12.30;99.90
27270;DHT22;14769;56.934;24.176;2022-08-11T02:10:13;12.30;99.90
27270;DHT22;14769;56.934;24.176;2022-08-11T02:11:40;12.30;99.90
27270;DHT22;14769;56.934;24.176;2022-08-11T02:15:07;12.30;99.90
27270;DHT22;14769;56.934;24.176;2022-08-11T02:16:36;12.20;99.90
27270;DHT22;14769;56.934;24.176;2022-08-11T02:21:28;12.20;99.90
27270;DHT22;14769;56.934;24.176;2022-08-11T02:26:35;12.10;99.90
27270;DHT22;14769;56.934;24.176;2022-08-11T02:29:34;12.10;99.90
27270;DHT22;14769;56.934;24.176;2022-08-11T02:31:13;12.00;99.90
27270;DHT22;14769;56.934;24.176;2022-08-11T02:33:21;12.00;99.90
27270;DHT22;14769;56.934;24.176;2022-08-11T02:35:04;11.90;99.90
27270;DHT22;14769;56.934;24.176;2022-08-11T02:36:12;11.80;99.90
27270;DHT22;14769;56.934;24.176;2022-08-11T02:37:41;11.80;99.90
27270;DHT22;14769;56.934;24.176;2022-08-11T02:40:16;11.80;99.90
27270;DHT22;14769;56.934;24.176;2022-08-11T02:41:30;11.80;99.90
27270;DHT22;14769;56.934;24.176;2022-08-11T02:43:21;11.90;99.90
27270;DHT22;14769;56.934;24.176;2022-08-11T02:44:30;11.90;99.90
27270;DHT22;14769;56.934;24.176;2022-08-11T02:45:55;11.90;99.90
27270;DHT22;14769;56.934;24.176;2022-08-11T02:49:07;11.90;99.90
27270;DHT22;14769;56.934;24.176;2022-08-11T02:52:19;11.90;99.90
27270;DHT22;14769;56.934;24.176;2022-08-11T02:53:38;12.00;99.90
27270;DHT22;14769;56.934;24.176;2022-08-11T02:59:58;12.00;99.90
27270;DHT22;14769;56.934;24.176;2022-08-11T03:01:42;12.00;99.90
27270;DHT22;14769;56.934;24.176;2022-08-11T03:04:40;12.00;99.90
27270;DHT22;14769;56.934;24.176;2022-08-11T03:06:11;12.00;99.90
27270;DHT22;14769;56.934;24.176;2022-08-11T03:07:40;12.00;99.90
27270;DHT22;14769;56.934;24.176;2022-08-11T03:09:03;12.10;99.90
27270;DHT22;14769;56.934;24.176;2022-08-11T03:16:08;12.10;99.90
27270;DHT22;14769;56.934;24.176;2022-08-11T03:20:10;12.10;99.90
27270;DHT22;14769;56.934;24.176;2022-08-11T03:24:10;12.00;99.90
27270;DHT22;14769;56.934;24.176;2022-08-11T03:29:06;12.00;99.90
27270;DHT22;14769;56.934;24.176;2022-08-11T03:34:29;12.00;99.90
27270;DHT22;14769;56.934;24.176;2022-08-11T03:38:17;12.10;99.90
27270;DHT22;14769;56.934;24.176;2022-08-11T03:43:44;12.20;99.90
27270;DHT22;14769;56.934;24.176;2022-08-11T03:46:39;12.30;99.90
27270;DHT22;14769;56.934;24.176;2022-08-11T03:51:28;12.50;99.90
27270;DHT22;14769;56.934;24.176;2022-08-11T03:53:18;12.50;99.90
27270;DHT22;14769;56.934;24.176;2022-08-11T03:57:35;12.70;99.90
27270;DHT22;14769;56.934;24.176;2022-08-11T03:59:04;12.80;99.90
27270;DHT22;14769;56.934;24.176;2022-08-11T04:02:03;12.90;99.90
27270;DHT22;14769;56.934;24.176;2022-08-11T04:03:16;12.90;99.90
27270;DHT22;14769;56.934;24.176;2022-08-11T04:14:00;13.20;99.90
27270;DHT22;14769;56.934;24.176;2022-08-11T04:37:41;14.00;99.90
27270;DHT22;14769;56.934;24.176;2022-08-11T04:51:33;14.70;99.90
27270;DHT22;14769;56.934;24.176;2022-08-11T04:56:25;15.00;99.90
27270;DHT22;14769;56.934;24.176;2022-08-11T05:12:42;15.80;99.90
27270;DHT22;14769;56.934;24.176;2022-08-11T05:13:51;15.90;99.90
27270;DHT22;14769;56.934;24.176;2022-08-11T05:15:33;15.90;99.90
27270;DHT22;14769;56.934;24.176;2022-08-11T05:17:10;16.00;99.90
27270;DHT22;14769;56.934;24.176;2022-08-11T05:18:34;16.10;99.90
27270;DHT22;14769;56.934;24.176;2022-08-11T05:19:57;16.10;99.90
27270;DHT22;14769;56.934;24.176;2022-08-11T05:21:35;16.30;99.90
27270;DHT22;14769;56.934;24.176;2022-08-11T05:23:04;16.30;99.90
27270;DHT22;14769;56.934;24.176;2022-08-11T05:24:39;16.40;99.90
27270;DHT22;14769;56.934;24.176;2022-08-11T05:26:02;16.50;99.90
27270;DHT22;14769;56.934;24.176;2022-08-11T05:27:53;16.50;99.90
27270;DHT22;14769;56.934;24.176;2022-08-11T05:29:57;16.60;99.90
27270;DHT22;14769;56.934;24.176;2022-08-11T05:31:25;16.70;99.90
27270;DHT22;14769;56.934;24.176;2022-08-11T05:33:11;16.80;99.90
27270;DHT22;14769;56.934;24.176;2022-08-11T05:34:51;16.90;99.90
27270;DHT22;14769;56.934;24.176;2022-08-11T05:36:56;16.90;99.90
27270;DHT22;14769;56.934;24.176;2022-08-11T05:37:43;17.00;99.90
27270;DHT22;14769;56.934;24.176;2022-08-11T05:39:12;17.10;99.90
27270;DHT22;14769;56.934;24.176;2022-08-11T05:40:37;17.20;99.90
27270;DHT22;14769;56.934;24.176;2022-08-11T05:42:01;17.30;99.90
27270;DHT22;14769;56.934;24.176;2022-08-11T05:43:32;17.40;99.90
27270;DHT22;14769;56.934;24.176;2022-08-11T05:45:16;17.40;99.90
27270;DHT22;14769;56.934;24.176;2022-08-11T05:46:57;17.50;99.90
27270;DHT22;14769;56.934;24.176;2022-08-11T05:48:18;17.60;99.90
27270;DHT22;14769;56.934;24.176;2022-08-11T05:49:39;17.70;99.90
27270;DHT22;14769;56.934;24.176;2022-08-11T05:51:01;17.70;99.90
27270;DHT22;14769;56.934;24.176;2022-08-11T05:52:31;17.80;99.90
27270;DHT22;14769;56.934;24.176;2022-08-11T05:54:00;17.90;99.90
27270;DHT22;14769;56.934;24.176;2022-08-11T05:55:30;18.00;99.90
27270;DHT22;14769;56.934;24.176;2022-08-11T05:57:04;18.10;99.90
27270;DHT22;14769;56.934;24.176;2022-08-11T05:58:07;18.20;99.90
27270;DHT22;14769;56.934;24.176;2022-08-11T05:59:16;18.20;99.90
27270;DHT22;14769;56.934;24.176;2022-08-11T06:00:19;18.30;99.90
27270;DHT22;14769;56.934;24.176;2022-08-11T06:01:30;18.30;99.90
27270;DHT22;14769;56.934;24.176;2022-08-11T06:02:50;18.40;99.90
27270;DHT22;14769;56.934;24.176;2022-08-11T06:03:55;18.50;99.90
27270;DHT22;14769;56.934;24.176;2022-08-11T06:05:16;18.60;99.90
27270;DHT22;14769;56.934;24.176;2022-08-11T06:06:21;18.60;99.90
27270;DHT22;14769;56.934;24.176;2022-08-11T06:07:28;18.80;99.60
27270;DHT22;14769;56.934;24.176;2022-08-11T06:08:54;18.80;98.50
27270;DHT22;14769;56.934;24.176;2022-08-11T06:09:58;18.90;97.70
27270;DHT22;14769;56.934;24.176;2022-08-11T06:11:03;19.00;97.00
27270;DHT22;14769;56.934;24.176;2022-08-11T06:12:10;19.00;96.40
27270;DHT22;14769;56.934;24.176;2022-08-11T06:13:17;19.10;95.70
27270;DHT22;14769;56.934;24.176;2022-08-11T06:14:20;19.10;95.00
27270;DHT22;14769;56.934;24.176;2022-08-11T06:15:24;19.20;95.00
27270;DHT22;14769;56.934;24.176;2022-08-11T06:16:27;19.20;94.50
27270;DHT22;14769;56.934;24.176;2022-08-11T06:17:30;19.20;94.80
27270;DHT22;14769;56.934;24.176;2022-08-11T06:18:45;19.30;94.70
27270;DHT22;14769;56.934;24.176;2022-08-11T06:19:48;19.30;94.10
27270;DHT22;14769;56.934;24.176;2022-08-11T06:20:54;19.40;93.80
27270;DHT22;14769;56.934;24.176;2022-08-11T06:21:57;19.40;93.30
27270;DHT22;14769;56.934;24.176;2022-08-11T06:23:05;19.50;93.00
27270;DHT22;14769;56.934;24.176;2022-08-11T06:24:12;19.50;92.90
27270;DHT22;14769;56.934;24.176;2022-08-11T06:25:14;19.50;92.70
27270;DHT22;14769;56.934;24.176;2022-08-11T06:26:17;19.60;92.50
27270;DHT22;14769;56.934;24.176;2022-08-11T06:27:21;19.60;92.20
27270;DHT22;14769;56.934;24.176;2022-08-11T06:28:36;19.70;92.00
27270;DHT22;14769;56.934;24.176;2022-08-11T06:29:48;19.80;91.50
27270;DHT22;14769;56.934;24.176;2022-08-11T06:30:56;19.80;91.40
27270;DHT22;14769;56.934;24.176;2022-08-11T06:32:02;19.80;91.10
27270;DHT22;14769;56.934;24.176;2022-08-11T06:33:15;19.90;90.60
27270;DHT22;14769;56.934;24.176;2022-08-11T06:36:03;20.00;89.80
27270;DHT22;14769;56.934;24.176;2022-08-11T06:40:25;20.10;88.00
27270;DHT22;14769;56.934;24.176;2022-08-11T06:41:51;20.10;87.80
27270;DHT22;14769;56.934;24.176;2022-08-11T06:43:10;20.10;87.20
27270;DHT22;14769;56.934;24.176;2022-08-11T06:44:29;20.20;87.30
27270;DHT22;14769;56.934;24.176;2022-08-11T06:46:52;20.20;85.00
27270;DHT22;14769;56.934;24.176;2022-08-11T06:47:58;20.20;85.20
27270;DHT22;14769;56.934;24.176;2022-08-11T06:49:02;20.30;84.50
27270;DHT22;14769;56.934;24.176;2022-08-11T06:50:05;20.30;83.40
27270;DHT22;14769;56.934;24.176;2022-08-11T06:51:26;20.40;83.40
27270;DHT22;14769;56.934;24.176;2022-08-11T06:52:35;20.40;84.00
27270;DHT22;14769;56.934;24.176;2022-08-11T06:53:54;20.50;83.60
27270;DHT22;14769;56.934;24.176;2022-08-11T06:55:10;20.50;83.10
27270;DHT22;14769;56.934;24.176;2022-08-11T06:56:35;20.60;83.00
27270;DHT22;14769;56.934;24.176;2022-08-11T06:58:20;20.60;82.40
27270;DHT22;14769;56.934;24.176;2022-08-11T06:59:42;20.60;81.30
27270;DHT22;14769;56.934;24.176;2022-08-11T07:01:17;20.70;80.10
27270;DHT22;14769;56.934;24.176;2022-08-11T07:02:27;20.70;80.00
27270;DHT22;14769;56.934;24.176;2022-08-11T07:03:38;20.70;80.30
27270;DHT22;14769;56.934;24.176;2022-08-11T07:05:59;20.80;80.20
27270;DHT22;14769;56.934;24.176;2022-08-11T07:09:32;20.90;79.70
27270;DHT22;14769;56.934;24.176;2022-08-11T07:13:12;20.90;79.10
27270;DHT22;14769;56.934;24.176;2022-08-11T07:14:53;20.90;79.70
27270;DHT22;14769;56.934;24.176;2022-08-11T07:16:18;21.00;79.80
27270;DHT22;14769;56.934;24.176;2022-08-11T07:17:27;21.10;79.50
27270;DHT22;14769;56.934;24.176;2022-08-11T07:18:34;21.10;78.30
27270;DHT22;14769;56.934;24.176;2022-08-11T07:19:57;21.20;78.30
27270;DHT22;14769;56.934;24.176;2022-08-11T07:21:26;21.20;78.20
27270;DHT22;14769;56.934;24.176;2022-08-11T07:23:08;21.20;78.30
27270;DHT22;14769;56.934;24.176;2022-08-11T07:24:38;21.20;78.00
27270;DHT22;14769;56.934;24.176;2022-08-11T07:26:04;21.30;77.60
27270;DHT22;14769;56.934;24.176;2022-08-11T07:27:43;21.30;77.70
27270;DHT22;14769;56.934;24.176;2022-08-11T07:29:05;21.30;77.20
27270;DHT22;14769;56.934;24.176;2022-08-11T07:30:09;21.30;76.70
27270;DHT22;14769;56.934;24.176;2022-08-11T07:31:16;21.40;76.00
27270;DHT22;14769;56.934;24.176;2022-08-11T07:32:27;21.50;76.00
27270;DHT22;14769;56.934;24.176;2022-08-11T07:33:48;21.50;75.60
27270;DHT22;14769;56.934;24.176;2022-08-11T07:35:12;21.60;75.20
27270;DHT22;14769;56.934;24.176;2022-08-11T07:36:17;21.60;75.30
27270;DHT22;14769;56.934;24.176;2022-08-11T07:37:19;21.60;75.20
27270;DHT22;14769;56.934;24.176;2022-08-11T07:38:26;21.60;75.80
27270;DHT22;14769;56.934;24.176;2022-08-11T07:39:48;21.60;75.70
27270;DHT22;14769;56.934;24.176;2022-08-11T07:40:51;21.60;75.50
27270;DHT22;14769;56.934;24.176;2022-08-11T07:41:56;21.70;75.10
27270;DHT22;14769;56.934;24.176;2022-08-11T07:42:59;21.70;73.90
27270;DHT22;14769;56.934;24.176;2022-08-11T07:44:03;21.70;74.20
27270;DHT22;14769;56.934;24.176;2022-08-11T07:45:12;21.80;74.80
27270;DHT22;14769;56.934;24.176;2022-08-11T07:46:41;21.80;74.80
27270;DHT22;14769;56.934;24.176;2022-08-11T07:48:02;21.90;74.10
27270;DHT22;14769;56.934;24.176;2022-08-11T07:49:23;21.90;73.90
27270;DHT22;14769;56.934;24.176;2022-08-11T07:50:44;22.00;73.80
27270;DHT22;14769;56.934;24.176;2022-08-11T07:52:06;22.00;72.30
27270;DHT22;14769;56.934;24.176;2022-08-11T07:53:30;22.00;72.90
27270;DHT22;14769;56.934;24.176;2022-08-11T07:55:00;21.90;73.10
27270;DHT22;14769;56.934;24.176;2022-08-11T07:56:04;22.00;73.60
27270;DHT22;14769;56.934;24.176;2022-08-11T07:57:10;22.00;73.00
27270;DHT22;14769;56.934;24.176;2022-08-11T07:58:54;22.10;73.00
27270;DHT22;14769;56.934;24.176;2022-08-11T08:00:18;22.10;73.10
27270;DHT22;14769;56.934;24.176;2022-08-11T08:01:38;22.10;72.80
27270;DHT22;14769;56.934;24.176;2022-08-11T08:03:02;22.10;72.20
27270;DHT22;14769;56.934;24.176;2022-08-11T08:04:23;22.10;71.80
27270;DHT22;14769;56.934;24.176;2022-08-11T08:05:49;22.10;72.00
27270;DHT22;14769;56.934;24.176;2022-08-11T08:07:30;22.20;72.10
27270;DHT22;14769;56.934;24.176;2022-08-11T08:08:51;22.20;71.50
27270;DHT22;14769;56.934;24.176;2022-08-11T08:10:13;22.20;71.40
27270;DHT22;14769;56.934;24.176;2022-08-11T08:11:37;22.30;71.30
27270;DHT22;14769;56.934;24.176;2022-08-11T08:12:58;22.40;70.40
27270;DHT22;14769;56.934;24.176;2022-08-11T08:14:20;22.40;70.80
27270;DHT22;14769;56.934;24.176;2022-08-11T08:15:42;22.40;69.60
27270;DHT22;14769;56.934;24.176;2022-08-11T08:17:03;22.40;69.60
27270;DHT22;14769;56.934;24.176;2022-08-11T08:18:24;22.40;69.50
27270;DHT22;14769;56.934;24.176;2022-08-11T08:19:28;22.40;69.70
27270;DHT22;14769;56.934;24.176;2022-08-11T08:20:36;22.40;68.90
27270;DHT22;14769;56.934;24.176;2022-08-11T08:21:38;22.50;68.40
27270;DHT22;14769;56.934;24.176;2022-08-11T08:22:54;22.60;68.10
27270;DHT22;14769;56.934;24.176;2022-08-11T08:23:57;22.60;67.80
27270;DHT22;14769;56.934;24.176;2022-08-11T08:25:00;22.70;67.40
27270;DHT22;14769;56.934;24.176;2022-08-11T08:26:06;22.70;67.10
27270;DHT22;14769;56.934;24.176;2022-08-11T08:27:27;22.80;66.50
27270;DHT22;14769;56.934;24.176;2022-08-11T08:28:32;22.80;66.60
27270;DHT22;14769;56.934;24.176;2022-08-11T08:29:36;22.80;66.40
27270;DHT22;14769;56.934;24.176;2022-08-11T08:31:18;22.70;65.60
27270;DHT22;14769;56.934;24.176;2022-08-11T08:32:20;22.70;65.70
27270;DHT22;14769;56.934;24.176;2022-08-11T08:33:25;22.70;65.40
27270;DHT22;14769;56.934;24.176;2022-08-11T08:34:28;22.80;65.60
27270;DHT22;14769;56.934;24.176;2022-08-11T08:35:36;22.80;66.00
27270;DHT22;14769;56.934;24.176;2022-08-11T08:37:20;22.80;66.50
27270;DHT22;14769;56.934;24.176;2022-08-11T08:38:53;22.80;65.10
27270;DHT22;14769;56.934;24.176;2022-08-11T08:39:58;22.80;65.60
27270;DHT22;14769;56.934;24.176;2022-08-11T08:41:03;22.80;65.10
27270;DHT22;14769;56.934;24.176;2022-08-11T08:42:11;22.90;64.10
27270;DHT22;14769;56.934;24.176;2022-08-11T08:43:15;22.90;64.20
27270;DHT22;14769;56.934;24.176;2022-08-11T08:44:18;22.90;63.70
27270;DHT22;14769;56.934;24.176;2022-08-11T08:45:42;22.90;63.90
27270;DHT22;14769;56.934;24.176;2022-08-11T08:46:49;22.90;63.80
27270;DHT22;14769;56.934;24.176;2022-08-11T08:48:02;22.90;63.60
27270;DHT22;14769;56.934;24.176;2022-08-11T08:49:06;23.00;63.70
27270;DHT22;14769;56.934;24.176;2022-08-11T08:50:13;23.00;63.30
27270;DHT22;14769;56.934;24.176;2022-08-11T08:51:38;23.10;62.90
27270;DHT22;14769;56.934;24.176;2022-08-11T08:53:07;23.20;62.10
27270;DHT22;14769;56.934;24.176;2022-08-11T08:54:16;23.20;62.20
27270;DHT22;14769;56.934;24.176;2022-08-11T08:55:22;23.20;62.10
27270;DHT22;14769;56.934;24.176;2022-08-11T08:56:51;23.30;62.20
27270;DHT22;14769;56.934;24.176;2022-08-11T08:58:01;23.30;62.00
27270;DHT22;14769;56.934;24.176;2022-08-11T08:59:05;23.40;61.80
27270;DHT22;14769;56.934;24.176;2022-08-11T09:00:13;23.40;61.50
27270;DHT22;14769;56.934;24.176;2022-08-11T09:01:23;23.40;62.10
27270;DHT22;14769;56.934;24.176;2022-08-11T09:02:27;23.40;62.60
27270;DHT22;14769;56.934;24.176;2022-08-11T09:03:38;23.40;61.60
27270;DHT22;14769;56.934;24.176;2022-08-11T09:05:03;23.30;62.50
27270;DHT22;14769;56.934;24.176;2022-08-11T09:06:08;23.30;62.40
27270;DHT22;14769;56.934;24.176;2022-08-11T09:07:12;23.40;62.80
27270;DHT22;14769;56.934;24.176;2022-08-11T09:08:17;23.40;62.60
27270;DHT22;14769;56.934;24.176;2022-08-11T09:09:24;23.40;61.90
27270;DHT22;14769;56.934;24.176;2022-08-11T09:10:28;23.40;62.10
27270;DHT22;14769;56.934;24.176;2022-08-11T09:11:41;23.40;61.70
27270;DHT22;14769;56.934;24.176;2022-08-11T09:12:57;23.40;61.60
27270;DHT22;14769;56.934;24.176;2022-08-11T09:14:02;23.40;62.00
27270;DHT22;14769;56.934;24.176;2022-08-11T09:15:18;23.50;61.20
27270;DHT22;14769;56.934;24.176;2022-08-11T09:16:32;23.60;61.10
27270;DHT22;14769;56.934;24.176;2022-08-11T09:17:42;23.60;60.80
27270;DHT22;14769;56.934;24.176;2022-08-11T09:18:45;23.60;60.60
27270;DHT22;14769;56.934;24.176;2022-08-11T09:20:06;23.70;60.90
27270;DHT22;14769;56.934;24.176;2022-08-11T09:21:08;23.80;59.80
27270;DHT22;14769;56.934;24.176;2022-08-11T09:22:12;23.80;59.50
27270;DHT22;14769;56.934;24.176;2022-08-11T09:23:33;23.70;59.10
27270;DHT22;14769;56.934;24.176;2022-08-11T09:25:14;23.70;59.30
27270;DHT22;14769;56.934;24.176;2022-08-11T09:26:36;23.70;60.00
27270;DHT22;14769;56.934;24.176;2022-08-11T09:27:57;23.80;60.40
27270;DHT22;14769;56.934;24.176;2022-08-11T09:29:00;23.90;60.30
27270;DHT22;14769;56.934;24.176;2022-08-11T09:30:06;23.90;59.90
27270;DHT22;14769;56.934;24.176;2022-08-11T09:31:11;23.90;59.20
27270;DHT22;14769;56.934;24.176;2022-08-11T09:32:19;23.90;58.40
27270;DHT22;14769;56.934;24.176;2022-08-11T09:33:23;23.90;58.70
27270;DHT22;14769;56.934;24.176;2022-08-11T09:34:26;23.90;58.20
27270;DHT22;14769;56.934;24.176;2022-08-11T09:35:32;23.90;58.00
27270;DHT22;14769;56.934;24.176;2022-08-11T09:36:36;24.00;58.90
27270;DHT22;14769;56.934;24.176;2022-08-11T09:37:58;24.00;58.90
27270;DHT22;14769;56.934;24.176;2022-08-11T09:39:19;24.10;59.00
27270;DHT22;14769;56.934;24.176;2022-08-11T09:40:45;24.10;58.30
27270;DHT22;14769;56.934;24.176;2022-08-11T09:41:59;24.00;58.90
27270;DHT22;14769;56.934;24.176;2022-08-11T09:43:09;24.00;57.70
27270;DHT22;14769;56.934;24.176;2022-08-11T09:44:33;24.00;57.40
27270;DHT22;14769;56.934;24.176;2022-08-11T09:45:56;24.00;57.50
27270;DHT22;14769;56.934;24.176;2022-08-11T09:46:59;24.10;57.10
27270;DHT22;14769;56.934;24.176;2022-08-11T09:48:02;24.10;57.30
27270;DHT22;14769;56.934;24.176;2022-08-11T09:49:06;24.20;56.70
27270;DHT22;14769;56.934;24.176;2022-08-11T09:50:09;24.30;56.70
27270;DHT22;14769;56.934;24.176;2022-08-11T09:51:13;24.40;56.50
27270;DHT22;14769;56.934;24.176;2022-08-11T09:52:16;24.40;56.70
27270;DHT22;14769;56.934;24.176;2022-08-11T09:53:20;24.40;56.90
27270;DHT22;14769;56.934;24.176;2022-08-11T09:54:42;24.50;56.80
27270;DHT22;14769;56.934;24.176;2022-08-11T09:55:50;24.50;56.50
27270;DHT22;14769;56.934;24.176;2022-08-11T09:56:53;24.50;55.90
27270;DHT22;14769;56.934;24.176;2022-08-11T09:58:14;24.40;55.60
27270;DHT22;14769;56.934;24.176;2022-08-11T09:59:40;24.40;56.20
27270;DHT22;14769;56.934;24.176;2022-08-11T10:00:44;24.40;56.30
27270;DHT22;14769;56.934;24.176;2022-08-11T10:01:49;24.60;56.00
27270;DHT22;14769;56.934;24.176;2022-08-11T10:02:55;24.50;55.10
27270;DHT22;14769;56.934;24.176;2022-08-11T10:04:02;24.60;54.90
27270;DHT22;14769;56.934;24.176;2022-08-11T10:05:04;24.60;54.70
27270;DHT22;14769;56.934;24.176;2022-08-11T10:06:28;24.60;54.50
27270;DHT22;14769;56.934;24.176;2022-08-11T10:07:55;24.50;55.10
27270;DHT22;14769;56.934;24.176;2022-08-11T10:08:57;24.50;55.10
27270;DHT22;14769;56.934;24.176;2022-08-11T10:10:04;24.50;55.30
27270;DHT22;14769;56.934;24.176;2022-08-11T10:11:11;24.60;54.50
27270;DHT22;14769;56.934;24.176;2022-08-11T10:12:21;24.60;53.80
27270;DHT22;14769;56.934;24.176;2022-08-11T10:13:34;24.60;53.60
27270;DHT22;14769;56.934;24.176;2022-08-11T10:15:19;24.60;53.70
27270;DHT22;14769;56.934;24.176;2022-08-11T10:16:39;24.60;53.50
27270;DHT22;14769;56.934;24.176;2022-08-11T10:17:52;24.60;53.20
27270;DHT22;14769;56.934;24.176;2022-08-11T10:19:16;24.50;53.80
27270;DHT22;14769;56.934;24.176;2022-08-11T10:20:22;24.70;54.30
27270;DHT22;14769;56.934;24.176;2022-08-11T10:21:41;24.80;52.50
27270;DHT22;14769;56.934;24.176;2022-08-11T10:22:45;24.90;51.40
27270;DHT22;14769;56.934;24.176;2022-08-11T10:24:26;24.90;51.20
27270;DHT22;14769;56.934;24.176;2022-08-11T10:25:46;25.10;50.10
27270;DHT22;14769;56.934;24.176;2022-08-11T10:27:07;25.10;49.50
27270;DHT22;14769;56.934;24.176;2022-08-11T10:28:11;25.10;48.70
27270;DHT22;14769;56.934;24.176;2022-08-11T10:29:38;25.10;49.30
27270;DHT22;14769;56.934;24.176;2022-08-11T10:31:01;25.20;50.10
27270;DHT22;14769;56.934;24.176;2022-08-11T10:32:29;24.90;51.00
27270;DHT22;14769;56.934;24.176;2022-08-11T10:34:01;24.90;51.60
27270;DHT22;14769;56.934;24.176;2022-08-11T10:35:10;24.90;51.90
27270;DHT22;14769;56.934;24.176;2022-08-11T10:36:17;25.00;51.90
27270;DHT22;14769;56.934;24.176;2022-08-11T10:37:23;25.10;52.00
27270;DHT22;14769;56.934;24.176;2022-08-11T10:38:46;25.20;51.90
27270;DHT22;14769;56.934;24.176;2022-08-11T10:39:53;25.40;51.70
27270;DHT22;14769;56.934;24.176;2022-08-11T10:40:57;25.60;51.10
27270;DHT22;14769;56.934;24.176;2022-08-11T10:42:19;25.70;50.80
27270;DHT22;14769;56.934;24.176;2022-08-11T10:43:59;25.80;50.10
27270;DHT22;14769;56.934;24.176;2022-08-11T10:45:09;25.80;50.10
27270;DHT22;14769;56.934;24.176;2022-08-11T10:46:31;25.90;49.90
27270;DHT22;14769;56.934;24.176;2022-08-11T10:47:55;25.80;49.60
27270;DHT22;14769;56.934;24.176;2022-08-11T10:48:59;26.00;49.90
27270;DHT22;14769;56.934;24.176;2022-08-11T10:50:10;26.10;49.60
27270;DHT22;14769;56.934;24.176;2022-08-11T10:51:33;26.10;49.00
27270;DHT22;14769;56.934;24.176;2022-08-11T10:53:00;26.20;49.20
27270;DHT22;14769;56.934;24.176;2022-08-11T10:54:21;26.30;48.50
27270;DHT22;14769;56.934;24.176;2022-08-11T10:55:44;26.50;48.30
27270;DHT22;14769;56.934;24.176;2022-08-11T10:57:06;26.80;48.00
27270;DHT22;14769;56.934;24.176;2022-08-11T10:58:29;27.10;47.30
27270;DHT22;14769;56.934;24.176;2022-08-11T10:59:51;27.50;46.70
27270;DHT22;14769;56.934;24.176;2022-08-11T11:00:59;28.00;46.00
27270;DHT22;14769;56.934;24.176;2022-08-11T11:02:01;28.30;45.20
27270;DHT22;14769;56.934;24.176;2022-08-11T11:03:04;28.60;44.90
27270;DHT22;14769;56.934;24.176;2022-08-11T11:04:39;28.70;44.00
27270;DHT22;14769;56.934;24.176;2022-08-11T11:05:50;29.10;43.90
27270;DHT22;14769;56.934;24.176;2022-08-11T11:07:21;29.50;43.10
27270;DHT22;14769;56.934;24.176;2022-08-11T11:08:27;29.50;43.30
27270;DHT22;14769;56.934;24.176;2022-08-11T11:10:08;29.70;42.50
27270;DHT22;14769;56.934;24.176;2022-08-11T11:11:13;29.50;42.60
27270;DHT22;14769;56.934;24.176;2022-08-11T11:12:34;29.10;43.30
27270;DHT22;14769;56.934;24.176;2022-08-11T11:13:56;28.80;44.50
27270;DHT22;14769;56.934;24.176;2022-08-11T11:15:20;29.30;43.90
27270;DHT22;14769;56.934;24.176;2022-08-11T11:16:42;29.80;43.10
27270;DHT22;14769;56.934;24.176;2022-08-11T11:17:55;30.50;42.00
27270;DHT22;14769;56.934;24.176;2022-08-11T11:19:00;30.10;41.80